Current Conditions
Misty
Conditions



Pressure
29.94 (inHG) - 1013.92 (mb)
Visibility

5.0 (miles) - 8.0 (km)
   Temperature
61  °F
Temperature
61  °F
Dewpoint
100  %
 Humidity
   Wind Speed
5  mph
4  kts
8  km/h
2.2  m/s
   Wind Direction
N
45°
E
90°
135°
S
180°
225°
W
270°
315°
 20°

North North
East
   Airport Data
KMYR
Myrtle Beach International Airport
Metar :KMYR 271056Z 02004KT 5SM BR OVC050 16/16 A2994 RMK AO2 LTG DSNT W SLP139 T01610161
Wed 27th January 05:56 am
   Raw Metar Info
Raw METAR is the most common format in the world for the transmission of observational weather data. It is highly standardized through the International Civil Aviation Organization (ICAO), which allows it to be understood throughout most of the world.
   API Info
Data Provided by
https://www.checkwx.com/weather/KMYR

Aviation Weather providing METAR, TAF, AIRMET, SIGMET and OUTLOOK Weather Reports
   © Info
CSS/SVG/PHP scripts were developed by weather34.com for use in the weather34 template © 2015-2021

Guide Info provided by Metar-Wikipedia